Oregon, Illinois
Current Conditions -  °F | °C
As of 12:15 AM on Sunday 26 Oct 2014 (Local Time) from KRPJ Reporting Station
Clear Clear  
Wind Chill: 35°   Ceiling: Unl
Heat Index: 40°   Visibility: 10mi
Dew Point: 33°   Wind: 8mph
Humidity: 74%   Direction: 280°W
Pressure: 30.02"   Gusts: NA
Location:  42.01°N, 89.33°W
Report Text: KRPJ 260515Z AUTO 28007KT 10SM CLR 05/00 A3002 RMK AO2 T00450003
Loading
Personal Weather Stations






























Interactive Weather Map New forecast layout! Learn more

10-Day Weather Forecast

Advertisements
Track Severe Weather on mobile